sensor_id;sensor_type;location;lat;lon;timestamp;pressure;altitude;pressure_sealevel;temperature;humidity
80410;BME280;69746;45.596;10.154;2023-08-08T00:02:05;99467.41;;;26.56;28.64
80410;BME280;69746;45.596;10.154;2023-08-08T00:04:31;99471.84;;;26.57;28.84
80410;BME280;69746;45.596;10.154;2023-08-08T00:07:00;99461.47;;;26.58;29.05
80410;BME280;69746;45.596;10.154;2023-08-08T00:09:32;99470.69;;;26.58;28.67
80410;BME280;69746;45.596;10.154;2023-08-08T00:11:58;99467.91;;;26.58;28.88
80410;BME280;69746;45.596;10.154;2023-08-08T00:14:24;99475.94;;;26.60;28.96
80410;BME280;69746;45.596;10.154;2023-08-08T00:16:50;99469.53;;;26.59;28.94
80410;BME280;69746;45.596;10.154;2023-08-08T00:19:18;99466.72;;;26.59;29.17
80410;BME280;69746;45.596;10.154;2023-08-08T00:21:44;99462.75;;;26.60;28.84
80410;BME280;69746;45.596;10.154;2023-08-08T00:24:10;99468.34;;;26.60;29.02
80410;BME280;69746;45.596;10.154;2023-08-08T00:26:36;99470.34;;;26.60;29.05
80410;BME280;69746;45.596;10.154;2023-08-08T00:29:01;99467.19;;;26.61;29.08
80410;BME280;69746;45.596;10.154;2023-08-08T00:31:27;99472.78;;;26.61;29.09
80410;BME280;69746;45.596;10.154;2023-08-08T00:33:53;99464.38;;;26.61;29.51
80410;BME280;69746;45.596;10.154;2023-08-08T00:36:19;99462.41;;;26.62;29.13
80410;BME280;69746;45.596;10.154;2023-08-08T00:38:44;99465.19;;;26.62;29.55
80410;BME280;69746;45.596;10.154;2023-08-08T00:41:10;99462.41;;;26.62;29.54
80410;BME280;69746;45.596;10.154;2023-08-08T00:43:36;99468.81;;;26.62;29.56
80410;BME280;69746;45.596;10.154;2023-08-08T00:46:04;99468.81;;;26.62;29.47
80410;BME280;69746;45.596;10.154;2023-08-08T00:48:31;99469.63;;;26.63;29.59
80410;BME280;69746;45.596;10.154;2023-08-08T00:50:57;99465.66;;;26.64;29.49
80410;BME280;69746;45.596;10.154;2023-08-08T00:53:23;99462.06;;;26.63;29.63
80410;BME280;69746;45.596;10.154;2023-08-08T00:55:53;99459.59;;;26.62;29.85
80410;BME280;69746;45.596;10.154;2023-08-08T00:58:19;99461.59;;;26.61;29.72
80410;BME280;69746;45.596;10.154;2023-08-08T01:00:45;99458.09;;;26.64;29.92
80410;BME280;69746;45.596;10.154;2023-08-08T01:03:11;99462.88;;;26.64;29.73
80410;BME280;69746;45.596;10.154;2023-08-08T01:05:51;99469.28;;;26.64;29.76
80410;BME280;69746;45.596;10.154;2023-08-08T01:08:22;99468.47;;;26.64;29.64
80410;BME280;69746;45.596;10.154;2023-08-08T01:10:54;99471.25;;;26.64;29.95
80410;BME280;69746;45.596;10.154;2023-08-08T01:13:23;99477.69;;;26.64;30.30
80410;BME280;69746;45.596;10.154;2023-08-08T01:15:53;99472.91;;;26.65;30.01
80410;BME280;69746;45.596;10.154;2023-08-08T01:18:21;99478.50;;;26.65;30.26
80410;BME280;69746;45.596;10.154;2023-08-08T01:20:48;99471.72;;;26.66;30.17
80410;BME280;69746;45.596;10.154;2023-08-08T01:23:16;99473.25;;;26.63;30.23
80410;BME280;69746;45.596;10.154;2023-08-08T01:25:46;99478.84;;;26.63;30.46
80410;BME280;69746;45.596;10.154;2023-08-08T01:28:12;99477.69;;;26.64;30.63
80410;BME280;69746;45.596;10.154;2023-08-08T01:30:38;99476.84;;;26.64;30.42
80410;BME280;69746;45.596;10.154;2023-08-08T01:33:06;99471.25;;;26.64;30.26
80410;BME280;69746;45.596;10.154;2023-08-08T01:35:37;99487.69;;;26.65;30.63
80410;BME280;69746;45.596;10.154;2023-08-08T01:38:15;99483.28;;;26.64;30.34
80410;BME280;69746;45.596;10.154;2023-08-08T01:40:44;99489.69;;;26.65;30.29
80410;BME280;69746;45.596;10.154;2023-08-08T01:43:11;99491.66;;;26.64;30.68
80410;BME280;69746;45.596;10.154;2023-08-08T01:45:38;99486.88;;;26.65;30.60
80410;BME280;69746;45.596;10.154;2023-08-08T01:48:10;99497.25;;;26.64;30.50
80410;BME280;69746;45.596;10.154;2023-08-08T01:50:37;99501.69;;;26.65;30.50
80410;BME280;69746;45.596;10.154;2023-08-08T01:53:03;99504.50;;;26.65;30.92
80410;BME280;69746;45.596;10.154;2023-08-08T01:55:30;99504.50;;;26.65;30.85
80410;BME280;69746;45.596;10.154;2023-08-08T01:57:56;99508.09;;;26.66;30.40
80410;BME280;69746;45.596;10.154;2023-08-08T02:00:22;99500.88;;;26.65;30.71
80410;BME280;69746;45.596;10.154;2023-08-08T02:02:51;99510.09;;;26.65;30.90
80410;BME280;69746;45.596;10.154;2023-08-08T02:05:17;99512.88;;;26.65;30.84
80410;BME280;69746;45.596;10.154;2023-08-08T02:07:43;99502.50;;;26.66;31.06
80410;BME280;69746;45.596;10.154;2023-08-08T02:10:08;99503.31;;;26.66;30.80
80410;BME280;69746;45.596;10.154;2023-08-08T02:12:34;99504.50;;;26.65;30.75
80410;BME280;69746;45.596;10.154;2023-08-08T02:15:00;99507.28;;;26.65;30.67
80410;BME280;69746;45.596;10.154;2023-08-08T02:17:28;99507.28;;;26.65;31.00
80410;BME280;69746;45.596;10.154;2023-08-08T02:19:54;99508.09;;;26.66;30.92
80410;BME280;69746;45.596;10.154;2023-08-08T02:22:20;99503.31;;;26.66;30.92
80410;BME280;69746;45.596;10.154;2023-08-08T02:24:46;99506.13;;;26.66;31.12
80410;BME280;69746;45.596;10.154;2023-08-08T02:27:12;99504.50;;;26.65;31.03
80410;BME280;69746;45.596;10.154;2023-08-08T02:29:41;99508.09;;;26.66;31.10
80410;BME280;69746;45.596;10.154;2023-08-08T02:32:06;99504.50;;;26.65;31.36
80410;BME280;69746;45.596;10.154;2023-08-08T02:34:32;99508.44;;;26.64;31.23
80410;BME280;69746;45.596;10.154;2023-08-08T02:36:58;99508.09;;;26.66;31.25
80410;BME280;69746;45.596;10.154;2023-08-08T02:39:24;99498.06;;;26.65;31.08
80410;BME280;69746;45.596;10.154;2023-08-08T02:41:50;99491.31;;;26.66;31.21
80410;BME280;69746;45.596;10.154;2023-08-08T02:44:16;99498.88;;;26.65;31.37
80410;BME280;69746;45.596;10.154;2023-08-08T02:46:42;99493.28;;;26.65;31.35
80410;BME280;69746;45.596;10.154;2023-08-08T02:49:08;99498.88;;;26.65;31.24
80410;BME280;69746;45.596;10.154;2023-08-08T02:51:33;99491.31;;;26.66;31.11
80410;BME280;69746;45.596;10.154;2023-08-08T02:53:59;99501.69;;;26.65;31.36
80410;BME280;69746;45.596;10.154;2023-08-08T02:56:28;99503.31;;;26.66;31.63
80410;BME280;69746;45.596;10.154;2023-08-08T02:58:54;99499.34;;;26.67;31.35
80410;BME280;69746;45.596;10.154;2023-08-08T03:01:20;99498.88;;;26.65;31.79
80410;BME280;69746;45.596;10.154;2023-08-08T03:03:47;99491.31;;;26.66;31.50
80410;BME280;69746;45.596;10.154;2023-08-08T03:06:13;99500.53;;;26.66;31.56
80410;BME280;69746;45.596;10.154;2023-08-08T03:08:39;99506.47;;;26.65;31.84
80410;BME280;69746;45.596;10.154;2023-08-08T03:11:05;99504.50;;;26.65;31.90
80410;BME280;69746;45.596;10.154;2023-08-08T03:13:31;99504.50;;;26.65;31.78
80410;BME280;69746;45.596;10.154;2023-08-08T03:15:57;99505.31;;;26.66;32.05
80410;BME280;69746;45.596;10.154;2023-08-08T03:18:22;99499.72;;;26.66;31.69
80410;BME280;69746;45.596;10.154;2023-08-08T03:20:52;99499.72;;;26.66;31.73
80410;BME280;69746;45.596;10.154;2023-08-08T03:23:18;99495.28;;;26.65;31.96
80410;BME280;69746;45.596;10.154;2023-08-08T03:25:44;99502.03;;;26.64;32.04
80410;BME280;69746;45.596;10.154;2023-08-08T03:28:10;99506.47;;;26.65;31.95
80410;BME280;69746;45.596;10.154;2023-08-08T03:30:37;99510.09;;;26.65;31.33
80410;BME280;69746;45.596;10.154;2023-08-08T03:33:04;99514.03;;;26.64;31.33
80410;BME280;69746;45.596;10.154;2023-08-08T03:35:29;99516.03;;;26.64;31.59
80410;BME280;69746;45.596;10.154;2023-08-08T03:37:55;99509.25;;;26.65;31.57
80410;BME280;69746;45.596;10.154;2023-08-08T03:40:21;99512.41;;;26.63;31.72
80410;BME280;69746;45.596;10.154;2023-08-08T03:42:47;99518.81;;;26.64;31.92
80410;BME280;69746;45.596;10.154;2023-08-08T03:45:13;99511.59;;;26.63;31.78
80410;BME280;69746;45.596;10.154;2023-08-08T03:47:42;99500.41;;;26.63;31.85
80410;BME280;69746;45.596;10.154;2023-08-08T03:50:08;99503.22;;;26.63;31.87
80410;BME280;69746;45.596;10.154;2023-08-08T03:52:34;99505.19;;;26.62;31.82
80410;BME280;69746;45.596;10.154;2023-08-08T03:55:03;99505.19;;;26.62;31.78
80410;BME280;69746;45.596;10.154;2023-08-08T03:57:29;99496.78;;;26.62;32.33
80410;BME280;69746;45.596;10.154;2023-08-08T03:59:54;99491.09;;;26.59;31.71
80410;BME280;69746;45.596;10.154;2023-08-08T04:02:20;99501.56;;;26.62;32.17
80410;BME280;69746;45.596;10.154;2023-08-08T04:04:46;99501.56;;;26.62;31.87
80410;BME280;69746;45.596;10.154;2023-08-08T04:07:12;99509.16;;;26.61;32.24
80410;BME280;69746;45.596;10.154;2023-08-08T04:09:38;99507.16;;;26.62;32.21
80410;BME280;69746;45.596;10.154;2023-08-08T04:12:07;99513.59;;;26.62;31.67
80410;BME280;69746;45.596;10.154;2023-08-08T04:14:33;99527.09;;;26.60;31.69
80410;BME280;69746;45.596;10.154;2023-08-08T04:16:59;99529.91;;;26.60;31.68
80410;BME280;69746;45.596;10.154;2023-08-08T04:19:25;99530.72;;;26.61;31.89
80410;BME280;69746;45.596;10.154;2023-08-08T04:21:51;99533.88;;;26.59;31.30
80410;BME280;69746;45.596;10.154;2023-08-08T04:24:16;99536.22;;;26.57;30.84
80410;BME280;69746;45.596;10.154;2023-08-08T04:26:42;99533.41;;;26.57;30.89
80410;BME280;69746;45.596;10.154;2023-08-08T04:29:08;99528.94;;;26.56;30.28
80410;BME280;69746;45.596;10.154;2023-08-08T04:31:34;99531.75;;;26.56;30.29
80410;BME280;69746;45.596;10.154;2023-08-08T04:34:00;99535.72;;;26.55;30.09
80410;BME280;69746;45.596;10.154;2023-08-08T04:36:27;99529.31;;;26.55;29.97
80410;BME280;69746;45.596;10.154;2023-08-08T04:38:56;99532.91;;;26.55;29.87
80410;BME280;69746;45.596;10.154;2023-08-08T04:41:22;99536.06;;;26.54;29.61
80410;BME280;69746;45.596;10.154;2023-08-08T04:43:47;99542.00;;;26.52;29.77
80410;BME280;69746;45.596;10.154;2023-08-08T04:46:13;99546.78;;;26.52;29.03
80410;BME280;69746;45.596;10.154;2023-08-08T04:48:39;99553.53;;;26.51;28.92
80410;BME280;69746;45.596;10.154;2023-08-08T04:51:05;99555.88;;;26.49;28.68
80410;BME280;69746;45.596;10.154;2023-08-08T04:53:31;99548.66;;;26.48;28.88
80410;BME280;69746;45.596;10.154;2023-08-08T04:55:57;99554.25;;;26.48;29.18
80410;BME280;69746;45.596;10.154;2023-08-08T04:58:23;99563.81;;;26.47;28.99
80410;BME280;69746;45.596;10.154;2023-08-08T05:00:49;99558.22;;;26.47;28.82
80410;BME280;69746;45.596;10.154;2023-08-08T05:03:20;99559.38;;;26.45;29.04
80410;BME280;69746;45.596;10.154;2023-08-08T05:05:46;99556.13;;;26.43;29.23
80410;BME280;69746;45.596;10.154;2023-08-08T05:08:13;99554.13;;;26.44;28.66
80410;BME280;69746;45.596;10.154;2023-08-08T05:10:39;99567.31;;;26.43;28.56
80410;BME280;69746;45.596;10.154;2023-08-08T05:13:05;99552.81;;;26.41;28.84
80410;BME280;69746;45.596;10.154;2023-08-08T05:15:30;99555.97;;;26.40;28.47
80410;BME280;69746;45.596;10.154;2023-08-08T05:17:56;99556.31;;;26.38;29.45
80410;BME280;69746;45.596;10.154;2023-08-08T05:20:23;99561.56;;;26.40;29.10
80410;BME280;69746;45.596;10.154;2023-08-08T05:22:49;99566.34;;;26.39;29.50
80410;BME280;69746;45.596;10.154;2023-08-08T05:25:15;99561.56;;;26.40;29.90
80410;BME280;69746;45.596;10.154;2023-08-08T05:27:41;99563.19;;;26.41;29.94
80410;BME280;69746;45.596;10.154;2023-08-08T05:30:10;99557.94;;;26.39;29.68
80410;BME280;69746;45.596;10.154;2023-08-08T05:32:37;99564.34;;;26.40;30.01
80410;BME280;69746;45.596;10.154;2023-08-08T05:35:03;99569.13;;;26.39;29.88
80410;BME280;69746;45.596;10.154;2023-08-08T05:37:30;99569.13;;;26.39;30.10
80410;BME280;69746;45.596;10.154;2023-08-08T05:39:56;99567.16;;;26.40;30.29
80410;BME280;69746;45.596;10.154;2023-08-08T05:42:22;99580.31;;;26.39;30.61
80410;BME280;69746;45.596;10.154;2023-08-08T05:44:48;99584.75;;;26.40;30.55
80410;BME280;69746;45.596;10.154;2023-08-08T05:47:14;99589.53;;;26.40;30.28
80410;BME280;69746;45.596;10.154;2023-08-08T05:49:40;99583.94;;;26.40;30.34
80410;BME280;69746;45.596;10.154;2023-08-08T05:52:11;99588.38;;;26.41;30.35
80410;BME280;69746;45.596;10.154;2023-08-08T05:54:37;99599.56;;;26.41;30.55
80410;BME280;69746;45.596;10.154;2023-08-08T05:57:06;99591.97;;;26.41;30.25
80410;BME280;69746;45.596;10.154;2023-08-08T05:59:32;99595.94;;;26.40;30.50
80410;BME280;69746;45.596;10.154;2023-08-08T06:01:59;99607.94;;;26.41;30.32
80410;BME280;69746;45.596;10.154;2023-08-08T06:04:25;99614.34;;;26.41;30.20
80410;BME280;69746;45.596;10.154;2023-08-08T06:06:51;99616.34;;;26.41;30.72
80410;BME280;69746;45.596;10.154;2023-08-08T06:09:24;99613.19;;;26.42;30.65
80410;BME280;69746;45.596;10.154;2023-08-08T06:11:50;99607.94;;;26.41;30.10
80410;BME280;69746;45.596;10.154;2023-08-08T06:14:16;99611.56;;;26.41;30.64
80410;BME280;69746;45.596;10.154;2023-08-08T06:16:46;99615.16;;;26.42;30.41
80410;BME280;69746;45.596;10.154;2023-08-08T06:19:11;99615.16;;;26.42;30.51
80410;BME280;69746;45.596;10.154;2023-08-08T06:21:40;99608.75;;;26.41;30.77
80410;BME280;69746;45.596;10.154;2023-08-08T06:24:06;99623.56;;;26.42;30.55
80410;BME280;69746;45.596;10.154;2023-08-08T06:26:32;99617.97;;;26.42;30.47
80410;BME280;69746;45.596;10.154;2023-08-08T06:28:58;99631.94;;;26.42;30.79
80410;BME280;69746;45.596;10.154;2023-08-08T06:31:24;99622.41;;;26.43;30.97
80410;BME280;69746;45.596;10.154;2023-08-08T06:33:50;99619.59;;;26.43;30.92
80410;BME280;69746;45.596;10.154;2023-08-08T06:36:16;99623.25;;;26.43;31.08
80410;BME280;69746;45.596;10.154;2023-08-08T06:38:42;99632.44;;;26.44;31.13
80410;BME280;69746;45.596;10.154;2023-08-08T06:41:08;99624.06;;;26.44;31.37
80410;BME280;69746;45.596;10.154;2023-08-08T06:43:37;99625.69;;;26.45;31.36
80410;BME280;69746;45.596;10.154;2023-08-08T06:46:03;99626.84;;;26.44;31.21
80410;BME280;69746;45.596;10.154;2023-08-08T06:48:29;99629.31;;;26.45;31.32
80410;BME280;69746;45.596;10.154;2023-08-08T06:50:55;99630.47;;;26.44;31.31
80410;BME280;69746;45.596;10.154;2023-08-08T06:53:22;99636.88;;;26.45;31.92
80410;BME280;69746;45.596;10.154;2023-08-08T06:55:48;99635.72;;;26.46;31.38
80410;BME280;69746;45.596;10.154;2023-08-08T06:58:14;99638.50;;;26.46;31.51
80410;BME280;69746;45.596;10.154;2023-08-08T07:00:40;99631.75;;;26.47;31.88
80410;BME280;69746;45.596;10.154;2023-08-08T07:03:06;99632.91;;;26.46;31.57
80410;BME280;69746;45.596;10.154;2023-08-08T07:05:32;99640.16;;;26.47;31.87
80410;BME280;69746;45.596;10.154;2023-08-08T07:08:01;99637.34;;;26.47;31.67
80410;BME280;69746;45.596;10.154;2023-08-08T07:10:27;99634.56;;;26.47;31.72
80410;BME280;69746;45.596;10.154;2023-08-08T07:12:53;99638.97;;;26.48;31.51
80410;BME280;69746;45.596;10.154;2023-08-08T07:15:19;99631.75;;;26.47;32.02
80410;BME280;69746;45.596;10.154;2023-08-08T07:17:45;99630.59;;;26.48;31.73
80410;BME280;69746;45.596;10.154;2023-08-08T07:20:11;99625.00;;;26.48;31.71
80410;BME280;69746;45.596;10.154;2023-08-08T07:22:39;99628.63;;;26.49;31.52
80410;BME280;69746;45.596;10.154;2023-08-08T07:25:05;99623.00;;;26.49;31.66
80410;BME280;69746;45.596;10.154;2023-08-08T07:27:33;99637.00;;;26.49;32.09
80410;BME280;69746;45.596;10.154;2023-08-08T07:29:59;99632.22;;;26.49;31.82
80410;BME280;69746;45.596;10.154;2023-08-08T07:32:28;99636.66;;;26.50;31.77
80410;BME280;69746;45.596;10.154;2023-08-08T07:34:56;99633.03;;;26.50;31.78
80410;BME280;69746;45.596;10.154;2023-08-08T07:37:22;99633.03;;;26.50;31.68
80410;BME280;69746;45.596;10.154;2023-08-08T07:39:50;99633.03;;;26.50;31.83
80410;BME280;69746;45.596;10.154;2023-08-08T07:42:18;99637.00;;;26.49;32.17
80410;BME280;69746;45.596;10.154;2023-08-08T07:44:44;99643.06;;;26.51;31.90
80410;BME280;69746;45.596;10.154;2023-08-08T07:47:13;99641.09;;;26.51;31.78
80410;BME280;69746;45.596;10.154;2023-08-08T07:49:38;99642.25;;;26.50;32.02
80410;BME280;69746;45.596;10.154;2023-08-08T07:52:05;99639.91;;;26.52;31.92
80410;BME280;69746;45.596;10.154;2023-08-08T07:54:30;99644.69;;;26.52;32.04
80410;BME280;69746;45.596;10.154;2023-08-08T07:56:56;99631.88;;;26.51;31.89
80410;BME280;69746;45.596;10.154;2023-08-08T07:59:25;99637.13;;;26.52;32.23
80410;BME280;69746;45.596;10.154;2023-08-08T08:01:51;99631.53;;;26.52;32.02
80410;BME280;69746;45.596;10.154;2023-08-08T08:04:17;99631.53;;;26.52;32.33
80410;BME280;69746;45.596;10.154;2023-08-08T08:06:43;99627.56;;;26.53;31.98
80410;BME280;69746;45.596;10.154;2023-08-08T08:09:09;99621.16;;;26.53;32.10
80410;BME280;69746;45.596;10.154;2023-08-08T08:11:35;99625.59;;;26.54;32.49
80410;BME280;69746;45.596;10.154;2023-08-08T08:14:00;99622.78;;;26.54;32.07
80410;BME280;69746;45.596;10.154;2023-08-08T08:16:26;99625.59;;;26.54;32.07
80410;BME280;69746;45.596;10.154;2023-08-08T08:18:52;99618.81;;;26.55;32.50
80410;BME280;69746;45.596;10.154;2023-08-08T08:21:20;99613.22;;;26.55;32.21
80410;BME280;69746;45.596;10.154;2023-08-08T08:23:45;99621.63;;;26.55;32.26
80410;BME280;69746;45.596;10.154;2023-08-08T08:26:14;99618.00;;;26.54;32.22
80410;BME280;69746;45.596;10.154;2023-08-08T08:28:40;99619.63;;;26.55;32.21
80410;BME280;69746;45.596;10.154;2023-08-08T08:31:07;99614.03;;;26.55;32.32
80410;BME280;69746;45.596;10.154;2023-08-08T08:33:33;99621.28;;;26.56;32.29
80410;BME280;69746;45.596;10.154;2023-08-08T08:35:59;99630.50;;;26.57;32.31
80410;BME280;69746;45.596;10.154;2023-08-08T08:38:24;99618.47;;;26.56;32.71
80410;BME280;69746;45.596;10.154;2023-08-08T08:40:53;99622.13;;;26.57;32.75
80410;BME280;69746;45.596;10.154;2023-08-08T08:43:19;99616.53;;;26.57;32.71
80410;BME280;69746;45.596;10.154;2023-08-08T08:45:51;99621.78;;;26.58;32.73
80410;BME280;69746;45.596;10.154;2023-08-08T08:48:18;99620.97;;;26.58;32.49
80410;BME280;69746;45.596;10.154;2023-08-08T08:50:47;99622.59;;;26.59;32.58
80410;BME280;69746;45.596;10.154;2023-08-08T08:53:16;99626.19;;;26.59;32.63
80410;BME280;69746;45.596;10.154;2023-08-08T08:55:43;99621.78;;;26.58;32.81
80410;BME280;69746;45.596;10.154;2023-08-08T08:58:09;99620.59;;;26.59;32.90
80410;BME280;69746;45.596;10.154;2023-08-08T09:00:36;99622.25;;;26.60;32.54
80410;BME280;69746;45.596;10.154;2023-08-08T09:03:03;99623.06;;;26.61;32.48
80410;BME280;69746;45.596;10.154;2023-08-08T09:05:30;99621.06;;;26.61;32.73
80410;BME280;69746;45.596;10.154;2023-08-08T09:07:57;99617.47;;;26.61;32.82
80410;BME280;69746;45.596;10.154;2023-08-08T09:10:26;99623.53;;;26.63;32.70
80410;BME280;69746;45.596;10.154;2023-08-08T09:12:53;99627.47;;;26.62;32.61
80410;BME280;69746;45.596;10.154;2023-08-08T09:15:19;99626.31;;;26.63;32.58
80410;BME280;69746;45.596;10.154;2023-08-08T09:17:48;99627.94;;;26.64;32.65
80410;BME280;69746;45.596;10.154;2023-08-08T09:20:14;99635.19;;;26.65;32.79
80410;BME280;69746;45.596;10.154;2023-08-08T09:22:40;99628.78;;;26.64;33.11
80410;BME280;69746;45.596;10.154;2023-08-08T09:25:06;99629.59;;;26.65;33.25
80410;BME280;69746;45.596;10.154;2023-08-08T09:27:35;99636.00;;;26.65;33.15
80410;BME280;69746;45.596;10.154;2023-08-08T09:30:01;99630.41;;;26.65;32.80
80410;BME280;69746;45.596;10.154;2023-08-08T09:32:32;99620.03;;;26.66;33.00
80410;BME280;69746;45.596;10.154;2023-08-08T09:34:58;99623.63;;;26.66;33.35
80410;BME280;69746;45.596;10.154;2023-08-08T09:37:26;99636.47;;;26.67;32.95
80410;BME280;69746;45.596;10.154;2023-08-08T09:39:59;99629.69;;;26.68;32.92
80410;BME280;69746;45.596;10.154;2023-08-08T09:42:28;99626.09;;;26.68;33.28
80410;BME280;69746;45.596;10.154;2023-08-08T09:44:58;99621.31;;;26.68;33.02
80410;BME280;69746;45.596;10.154;2023-08-08T09:47:25;99620.16;;;26.69;32.98
80410;BME280;69746;45.596;10.154;2023-08-08T09:50:01;99625.78;;;26.69;33.02
80410;BME280;69746;45.596;10.154;2023-08-08T09:52:30;99625.78;;;26.69;33.03
80410;BME280;69746;45.596;10.154;2023-08-08T09:54:56;99615.41;;;26.70;33.13
80410;BME280;69746;45.596;10.154;2023-08-08T09:57:23;99612.59;;;26.70;33.49
80410;BME280;69746;45.596;10.154;2023-08-08T09:59:51;99608.97;;;26.69;33.09
80410;BME280;69746;45.596;10.154;2023-08-08T10:02:18;99617.84;;;26.71;33.42
80410;BME280;69746;45.596;10.154;2023-08-08T10:04:47;99615.03;;;26.71;33.25
80410;BME280;69746;45.596;10.154;2023-08-08T10:07:14;99600.22;;;26.71;33.19
80410;BME280;69746;45.596;10.154;2023-08-08T10:09:43;99605.81;;;26.71;33.45
80410;BME280;69746;45.596;10.154;2023-08-08T10:12:11;99611.06;;;26.72;33.23
80410;BME280;69746;45.596;10.154;2023-08-08T10:14:42;99606.28;;;26.73;33.23
80410;BME280;69746;45.596;10.154;2023-08-08T10:17:13;99603.50;;;26.73;33.69
80410;BME280;69746;45.596;10.154;2023-08-08T10:19:40;99605.13;;;26.74;33.34
80410;BME280;69746;45.596;10.154;2023-08-08T10:22:09;99603.16;;;26.74;33.74
80410;BME280;69746;45.596;10.154;2023-08-08T10:24:35;99600.34;;;26.74;33.59
80410;BME280;69746;45.596;10.154;2023-08-08T10:27:02;99600.34;;;26.74;33.40
80410;BME280;69746;45.596;10.154;2023-08-08T10:29:33;99601.16;;;26.75;33.64
80410;BME280;69746;45.596;10.154;2023-08-08T10:32:01;99595.56;;;26.75;33.82
80410;BME280;69746;45.596;10.154;2023-08-08T10:34:42;99597.19;;;26.76;33.50
80410;BME280;69746;45.596;10.154;2023-08-08T10:37:14;99597.19;;;26.76;33.88
80410;BME280;69746;45.596;10.154;2023-08-08T10:40:00;99597.19;;;26.76;33.78
80410;BME280;69746;45.596;10.154;2023-08-08T10:42:27;99589.63;;;26.77;33.96
80410;BME280;69746;45.596;10.154;2023-08-08T10:44:59;99596.03;;;26.77;33.79
80410;BME280;69746;45.596;10.154;2023-08-08T10:47:26;99594.41;;;26.76;34.01
80410;BME280;69746;45.596;10.154;2023-08-08T10:50:13;99592.06;;;26.78;34.02
80410;BME280;69746;45.596;10.154;2023-08-08T10:55:31;99592.06;;;26.78;33.98
80410;BME280;69746;45.596;10.154;2023-08-08T10:58:07;99581.69;;;26.79;33.72
80410;BME280;69746;45.596;10.154;2023-08-08T11:00:37;99574.47;;;26.78;33.91
80410;BME280;69746;45.596;10.154;2023-08-08T11:03:09;99580.88;;;26.78;34.18
80410;BME280;69746;45.596;10.154;2023-08-08T11:05:37;99578.06;;;26.78;33.90
80410;BME280;69746;45.596;10.154;2023-08-08T11:08:05;99574.94;;;26.80;33.76
80410;BME280;69746;45.596;10.154;2023-08-08T11:10:36;99580.53;;;26.80;33.95
80410;BME280;69746;45.596;10.154;2023-08-08T11:13:08;99572.94;;;26.80;34.11
80410;BME280;69746;45.596;10.154;2023-08-08T11:15:36;99570.13;;;26.80;34.26
80410;BME280;69746;45.596;10.154;2023-08-08T11:18:04;99568.16;;;26.81;34.01
80410;BME280;69746;45.596;10.154;2023-08-08T11:20:32;99566.53;;;26.80;33.88
80410;BME280;69746;45.596;10.154;2023-08-08T11:23:00;99572.59;;;26.82;34.13
80410;BME280;69746;45.596;10.154;2023-08-08T11:25:30;99572.59;;;26.82;34.17
80410;BME280;69746;45.596;10.154;2023-08-08T11:27:58;99575.38;;;26.82;34.33
80410;BME280;69746;45.596;10.154;2023-08-08T11:30:29;99567.00;;;26.82;34.09
80410;BME280;69746;45.596;10.154;2023-08-08T11:32:55;99563.38;;;26.81;34.04
80410;BME280;69746;45.596;10.154;2023-08-08T11:35:24;99561.06;;;26.83;34.03
80410;BME280;69746;45.596;10.154;2023-08-08T11:37:52;99565.84;;;26.83;34.10
80410;BME280;69746;45.596;10.154;2023-08-08T11:40:23;99562.69;;;26.84;34.17
80410;BME280;69746;45.596;10.154;2023-08-08T11:42:51;99566.66;;;26.83;34.06
80410;BME280;69746;45.596;10.154;2023-08-08T11:45:18;99557.91;;;26.85;34.38
80410;BME280;69746;45.596;10.154;2023-08-08T11:47:54;99560.72;;;26.85;34.14
80410;BME280;69746;45.596;10.154;2023-08-08T11:50:22;99562.69;;;26.84;34.13
80410;BME280;69746;45.596;10.154;2023-08-08T11:52:52;99541.13;;;26.85;34.06
80410;BME280;69746;45.596;10.154;2023-08-08T11:55:27;99547.53;;;26.85;34.47
80410;BME280;69746;45.596;10.154;2023-08-08T11:57:55;99553.13;;;26.85;34.29
80410;BME280;69746;45.596;10.154;2023-08-08T12:00:27;99542.75;;;26.86;34.17
80410;BME280;69746;45.596;10.154;2023-08-08T12:02:53;99539.97;;;26.86;34.75
80410;BME280;69746;45.596;10.154;2023-08-08T12:05:21;99546.38;;;26.86;34.21
80410;BME280;69746;45.596;10.154;2023-08-08T12:07:48;99541.59;;;26.87;34.44
80410;BME280;69746;45.596;10.154;2023-08-08T12:10:20;99535.19;;;26.86;34.49
80410;BME280;69746;45.596;10.154;2023-08-08T12:12:56;99546.03;;;26.88;34.28
80410;BME280;69746;45.596;10.154;2023-08-08T12:15:24;99545.19;;;26.87;34.35
80410;BME280;69746;45.596;10.154;2023-08-08T12:17:58;99538.78;;;26.87;34.44
80410;BME280;69746;45.596;10.154;2023-08-08T12:20:28;99534.34;;;26.86;34.70
80410;BME280;69746;45.596;10.154;2023-08-08T12:22:55;99538.44;;;26.88;34.76
80410;BME280;69746;45.596;10.154;2023-08-08T12:25:21;99529.22;;;26.88;34.62
80410;BME280;69746;45.596;10.154;2023-08-08T12:27:47;99528.41;;;26.87;34.48
80410;BME280;69746;45.596;10.154;2023-08-08T12:30:19;99530.03;;;26.88;34.75
80410;BME280;69746;45.596;10.154;2023-08-08T12:32:45;99521.66;;;26.88;34.41
80410;BME280;69746;45.596;10.154;2023-08-08T12:35:11;99521.66;;;26.88;34.78
80410;BME280;69746;45.596;10.154;2023-08-08T12:37:38;99528.06;;;26.89;34.67
80410;BME280;69746;45.596;10.154;2023-08-08T12:40:07;99529.69;;;26.90;34.53
80410;BME280;69746;45.596;10.154;2023-08-08T12:42:33;99525.25;;;26.89;34.73
80410;BME280;69746;45.596;10.154;2023-08-08T12:44:59;99521.28;;;26.90;34.50
80410;BME280;69746;45.596;10.154;2023-08-08T12:47:25;99516.50;;;26.90;34.53
80410;BME280;69746;45.596;10.154;2023-08-08T12:49:51;99520.47;;;26.89;34.56
80410;BME280;69746;45.596;10.154;2023-08-08T12:52:17;99514.53;;;26.91;34.94
80410;BME280;69746;45.596;10.154;2023-08-08T12:54:43;99518.13;;;26.91;34.77